sensor_id;sensor_type;location;lat;lon;timestamp;P1;durP1;ratioP1;P2;durP2;ratioP2
42742;SDS011;28397;44.552;-0.848;2023-10-31T00:00:21;20.65;;;5.93;;
42742;SDS011;28397;44.552;-0.848;2023-10-31T00:02:47;24.95;;;6.35;;
42742;SDS011;28397;44.552;-0.848;2023-10-31T00:05:13;23.38;;;6.10;;
42742;SDS011;28397;44.552;-0.848;2023-10-31T00:07:38;21.70;;;5.53;;
42742;SDS011;28397;44.552;-0.848;2023-10-31T00:10:04;19.40;;;5.53;;
42742;SDS011;28397;44.552;-0.848;2023-10-31T00:12:30;25.30;;;5.93;;
42742;SDS011;28397;44.552;-0.848;2023-10-31T00:14:55;17.30;;;5.07;;
42742;SDS011;28397;44.552;-0.848;2023-10-31T00:17:21;20.48;;;5.30;;
42742;SDS011;28397;44.552;-0.848;2023-10-31T00:19:47;19.67;;;5.20;;
42742;SDS011;28397;44.552;-0.848;2023-10-31T00:22:12;21.20;;;5.00;;
42742;SDS011;28397;44.552;-0.848;2023-10-31T00:24:38;23.30;;;5.88;;
42742;SDS011;28397;44.552;-0.848;2023-10-31T00:27:04;25.85;;;5.47;;
42742;SDS011;28397;44.552;-0.848;2023-10-31T00:29:29;18.33;;;5.10;;
42742;SDS011;28397;44.552;-0.848;2023-10-31T00:31:55;20.30;;;4.63;;
42742;SDS011;28397;44.552;-0.848;2023-10-31T00:34:21;18.13;;;4.93;;
42742;SDS011;28397;44.552;-0.848;2023-10-31T00:36:46;21.13;;;5.22;;
42742;SDS011;28397;44.552;-0.848;2023-10-31T00:39:13;25.73;;;6.20;;
42742;SDS011;28397;44.552;-0.848;2023-10-31T00:41:39;19.02;;;4.97;;
42742;SDS011;28397;44.552;-0.848;2023-10-31T00:44:09;18.70;;;5.20;;
42742;SDS011;28397;44.552;-0.848;2023-10-31T00:46:35;19.15;;;4.82;;
42742;SDS011;28397;44.552;-0.848;2023-10-31T00:49:00;20.20;;;5.40;;
42742;SDS011;28397;44.552;-0.848;2023-10-31T00:51:26;23.88;;;6.07;;
42742;SDS011;28397;44.552;-0.848;2023-10-31T00:53:52;24.25;;;6.00;;
42742;SDS011;28397;44.552;-0.848;2023-10-31T00:56:17;18.30;;;5.47;;
42742;SDS011;28397;44.552;-0.848;2023-10-31T00:58:43;10.30;;;3.20;;
42742;SDS011;28397;44.552;-0.848;2023-10-31T01:01:09;18.33;;;5.00;;
42742;SDS011;28397;44.552;-0.848;2023-10-31T01:03:34;20.42;;;5.13;;
42742;SDS011;28397;44.552;-0.848;2023-10-31T01:06:00;22.63;;;5.70;;
42742;SDS011;28397;44.552;-0.848;2023-10-31T01:08:26;27.33;;;6.13;;
42742;SDS011;28397;44.552;-0.848;2023-10-31T01:10:52;21.88;;;5.88;;
42742;SDS011;28397;44.552;-0.848;2023-10-31T01:13:17;26.35;;;7.15;;
42742;SDS011;28397;44.552;-0.848;2023-10-31T01:15:43;25.13;;;6.38;;
42742;SDS011;28397;44.552;-0.848;2023-10-31T01:18:09;26.60;;;6.82;;
42742;SDS011;28397;44.552;-0.848;2023-10-31T01:20:35;18.58;;;5.75;;
42742;SDS011;28397;44.552;-0.848;2023-10-31T01:23:00;26.55;;;6.13;;
42742;SDS011;28397;44.552;-0.848;2023-10-31T01:25:26;25.00;;;6.78;;
42742;SDS011;28397;44.552;-0.848;2023-10-31T01:27:52;28.75;;;6.63;;
42742;SDS011;28397;44.552;-0.848;2023-10-31T01:30:18;30.45;;;7.15;;
42742;SDS011;28397;44.552;-0.848;2023-10-31T01:32:43;21.27;;;6.10;;
42742;SDS011;28397;44.552;-0.848;2023-10-31T01:35:09;17.98;;;4.80;;
42742;SDS011;28397;44.552;-0.848;2023-10-31T01:37:34;20.90;;;4.68;;
42742;SDS011;28397;44.552;-0.848;2023-10-31T01:40:00;22.48;;;5.35;;
42742;SDS011;28397;44.552;-0.848;2023-10-31T01:42:26;21.70;;;5.18;;
42742;SDS011;28397;44.552;-0.848;2023-10-31T01:44:52;20.20;;;5.35;;
42742;SDS011;28397;44.552;-0.848;2023-10-31T01:47:17;20.85;;;5.13;;
42742;SDS011;28397;44.552;-0.848;2023-10-31T01:49:43;24.65;;;6.57;;
42742;SDS011;28397;44.552;-0.848;2023-10-31T01:52:09;25.67;;;5.63;;
42742;SDS011;28397;44.552;-0.848;2023-10-31T01:54:34;24.77;;;6.13;;
42742;SDS011;28397;44.552;-0.848;2023-10-31T01:57:01;23.00;;;6.63;;
42742;SDS011;28397;44.552;-0.848;2023-10-31T01:59:28;22.27;;;5.70;;
42742;SDS011;28397;44.552;-0.848;2023-10-31T02:01:54;25.27;;;5.65;;
42742;SDS011;28397;44.552;-0.848;2023-10-31T02:04:22;22.65;;;5.57;;
42742;SDS011;28397;44.552;-0.848;2023-10-31T02:06:50;17.63;;;4.22;;
42742;SDS011;28397;44.552;-0.848;2023-10-31T02:09:16;19.52;;;4.82;;
42742;SDS011;28397;44.552;-0.848;2023-10-31T02:11:42;19.25;;;4.78;;
42742;SDS011;28397;44.552;-0.848;2023-10-31T02:14:07;25.63;;;6.47;;
42742;SDS011;28397;44.552;-0.848;2023-10-31T02:16:33;19.15;;;5.18;;
42742;SDS011;28397;44.552;-0.848;2023-10-31T02:18:59;22.23;;;5.45;;
42742;SDS011;28397;44.552;-0.848;2023-10-31T02:21:25;21.38;;;5.85;;
42742;SDS011;28397;44.552;-0.848;2023-10-31T02:23:57;23.65;;;6.05;;
42742;SDS011;28397;44.552;-0.848;2023-10-31T02:28:54;29.45;;;7.38;;
42742;SDS011;28397;44.552;-0.848;2023-10-31T02:31:19;15.77;;;4.55;;
42742;SDS011;28397;44.552;-0.848;2023-10-31T02:33:45;12.90;;;3.83;;
42742;SDS011;28397;44.552;-0.848;2023-10-31T02:36:10;18.88;;;4.70;;
42742;SDS011;28397;44.552;-0.848;2023-10-31T02:38:36;18.45;;;5.32;;
42742;SDS011;28397;44.552;-0.848;2023-10-31T02:41:02;24.38;;;5.72;;
42742;SDS011;28397;44.552;-0.848;2023-10-31T02:43:27;25.50;;;6.05;;
42742;SDS011;28397;44.552;-0.848;2023-10-31T02:45:53;29.10;;;6.07;;
42742;SDS011;28397;44.552;-0.848;2023-10-31T02:48:19;27.67;;;6.20;;
42742;SDS011;28397;44.552;-0.848;2023-10-31T02:50:45;28.92;;;7.03;;
42742;SDS011;28397;44.552;-0.848;2023-10-31T02:53:11;25.92;;;6.13;;
42742;SDS011;28397;44.552;-0.848;2023-10-31T02:55:37;29.38;;;6.68;;
42742;SDS011;28397;44.552;-0.848;2023-10-31T02:58:02;28.88;;;6.38;;
42742;SDS011;28397;44.552;-0.848;2023-10-31T03:00:28;25.25;;;5.82;;
42742;SDS011;28397;44.552;-0.848;2023-10-31T03:02:53;21.77;;;5.40;;
42742;SDS011;28397;44.552;-0.848;2023-10-31T03:05:19;21.95;;;5.93;;
42742;SDS011;28397;44.552;-0.848;2023-10-31T03:07:45;25.95;;;6.45;;
42742;SDS011;28397;44.552;-0.848;2023-10-31T03:10:10;21.98;;;5.20;;
42742;SDS011;28397;44.552;-0.848;2023-10-31T03:12:36;24.05;;;6.15;;
42742;SDS011;28397;44.552;-0.848;2023-10-31T03:15:02;25.27;;;5.82;;
42742;SDS011;28397;44.552;-0.848;2023-10-31T03:17:29;22.73;;;5.93;;
42742;SDS011;28397;44.552;-0.848;2023-10-31T03:19:55;19.52;;;5.43;;
42742;SDS011;28397;44.552;-0.848;2023-10-31T03:22:20;20.17;;;5.03;;
42742;SDS011;28397;44.552;-0.848;2023-10-31T03:24:46;25.65;;;6.13;;
42742;SDS011;28397;44.552;-0.848;2023-10-31T03:27:12;18.77;;;4.80;;
42742;SDS011;28397;44.552;-0.848;2023-10-31T03:29:37;19.58;;;4.70;;
42742;SDS011;28397;44.552;-0.848;2023-10-31T03:32:03;22.73;;;5.57;;
42742;SDS011;28397;44.552;-0.848;2023-10-31T03:34:30;28.55;;;6.30;;
42742;SDS011;28397;44.552;-0.848;2023-10-31T03:36:55;21.73;;;5.20;;
42742;SDS011;28397;44.552;-0.848;2023-10-31T03:39:21;21.80;;;6.10;;
42742;SDS011;28397;44.552;-0.848;2023-10-31T03:41:47;22.45;;;5.57;;
42742;SDS011;28397;44.552;-0.848;2023-10-31T03:44:12;23.02;;;5.75;;
42742;SDS011;28397;44.552;-0.848;2023-10-31T03:46:38;23.02;;;5.78;;
42742;SDS011;28397;44.552;-0.848;2023-10-31T03:49:04;28.90;;;6.38;;
42742;SDS011;28397;44.552;-0.848;2023-10-31T03:51:32;20.05;;;6.05;;
42742;SDS011;28397;44.552;-0.848;2023-10-31T03:53:59;22.55;;;5.32;;
42742;SDS011;28397;44.552;-0.848;2023-10-31T03:56:24;22.23;;;5.45;;
42742;SDS011;28397;44.552;-0.848;2023-10-31T03:58:50;24.80;;;5.53;;
42742;SDS011;28397;44.552;-0.848;2023-10-31T04:01:16;25.27;;;6.00;;
42742;SDS011;28397;44.552;-0.848;2023-10-31T04:03:41;26.55;;;5.97;;
42742;SDS011;28397;44.552;-0.848;2023-10-31T04:06:07;20.60;;;5.57;;
42742;SDS011;28397;44.552;-0.848;2023-10-31T04:08:33;21.98;;;5.85;;
42742;SDS011;28397;44.552;-0.848;2023-10-31T04:10:59;23.92;;;6.10;;
42742;SDS011;28397;44.552;-0.848;2023-10-31T04:13:25;22.42;;;5.60;;
42742;SDS011;28397;44.552;-0.848;2023-10-31T04:15:50;19.75;;;5.18;;
42742;SDS011;28397;44.552;-0.848;2023-10-31T04:18:16;22.33;;;6.43;;
42742;SDS011;28397;44.552;-0.848;2023-10-31T04:20:42;18.98;;;5.40;;
42742;SDS011;28397;44.552;-0.848;2023-10-31T04:23:08;26.08;;;6.13;;
42742;SDS011;28397;44.552;-0.848;2023-10-31T04:25:33;19.42;;;5.30;;
42742;SDS011;28397;44.552;-0.848;2023-10-31T04:27:59;20.50;;;5.40;;
42742;SDS011;28397;44.552;-0.848;2023-10-31T04:30:25;24.85;;;6.00;;
42742;SDS011;28397;44.552;-0.848;2023-10-31T04:32:51;18.73;;;4.85;;
42742;SDS011;28397;44.552;-0.848;2023-10-31T04:35:17;20.58;;;5.40;;
42742;SDS011;28397;44.552;-0.848;2023-10-31T04:37:43;24.83;;;6.50;;
42742;SDS011;28397;44.552;-0.848;2023-10-31T04:40:09;22.75;;;5.50;;
42742;SDS011;28397;44.552;-0.848;2023-10-31T04:42:35;23.30;;;5.60;;
42742;SDS011;28397;44.552;-0.848;2023-10-31T04:45:03;23.35;;;5.78;;
42742;SDS011;28397;44.552;-0.848;2023-10-31T04:47:29;25.67;;;6.05;;
42742;SDS011;28397;44.552;-0.848;2023-10-31T04:49:55;26.25;;;6.15;;
42742;SDS011;28397;44.552;-0.848;2023-10-31T04:52:21;22.63;;;5.80;;
42742;SDS011;28397;44.552;-0.848;2023-10-31T04:54:47;22.00;;;5.57;;
42742;SDS011;28397;44.552;-0.848;2023-10-31T04:57:13;18.60;;;4.78;;
42742;SDS011;28397;44.552;-0.848;2023-10-31T04:59:39;22.42;;;5.40;;
42742;SDS011;28397;44.552;-0.848;2023-10-31T05:02:04;22.48;;;6.05;;
42742;SDS011;28397;44.552;-0.848;2023-10-31T05:04:30;25.73;;;6.28;;
42742;SDS011;28397;44.552;-0.848;2023-10-31T05:06:55;25.65;;;6.03;;
42742;SDS011;28397;44.552;-0.848;2023-10-31T05:09:21;23.50;;;5.70;;
42742;SDS011;28397;44.552;-0.848;2023-10-31T05:11:48;29.13;;;7.28;;
42742;SDS011;28397;44.552;-0.848;2023-10-31T05:14:14;25.40;;;6.22;;
42742;SDS011;28397;44.552;-0.848;2023-10-31T05:16:40;22.02;;;5.40;;
42742;SDS011;28397;44.552;-0.848;2023-10-31T05:19:07;22.30;;;5.70;;
42742;SDS011;28397;44.552;-0.848;2023-10-31T05:21:32;23.92;;;5.38;;
42742;SDS011;28397;44.552;-0.848;2023-10-31T05:23:58;23.48;;;5.55;;
42742;SDS011;28397;44.552;-0.848;2023-10-31T05:26:24;22.42;;;6.13;;
42742;SDS011;28397;44.552;-0.848;2023-10-31T05:28:49;24.15;;;5.95;;
42742;SDS011;28397;44.552;-0.848;2023-10-31T05:31:15;21.75;;;5.35;;
42742;SDS011;28397;44.552;-0.848;2023-10-31T05:33:42;25.33;;;5.95;;
42742;SDS011;28397;44.552;-0.848;2023-10-31T05:36:17;24.58;;;6.10;;
42742;SDS011;28397;44.552;-0.848;2023-10-31T05:38:50;21.67;;;5.45;;
42742;SDS011;28397;44.552;-0.848;2023-10-31T05:41:15;27.80;;;6.28;;
42742;SDS011;28397;44.552;-0.848;2023-10-31T05:43:41;27.45;;;6.70;;
42742;SDS011;28397;44.552;-0.848;2023-10-31T05:46:07;24.13;;;5.30;;
42742;SDS011;28397;44.552;-0.848;2023-10-31T05:48:38;26.60;;;6.03;;
42742;SDS011;28397;44.552;-0.848;2023-10-31T05:51:04;22.52;;;5.35;;
42742;SDS011;28397;44.552;-0.848;2023-10-31T05:53:36;22.50;;;5.60;;
42742;SDS011;28397;44.552;-0.848;2023-10-31T05:56:03;21.70;;;5.10;;
42742;SDS011;28397;44.552;-0.848;2023-10-31T05:58:29;20.75;;;5.35;;
42742;SDS011;28397;44.552;-0.848;2023-10-31T06:00:55;20.50;;;5.57;;
42742;SDS011;28397;44.552;-0.848;2023-10-31T06:03:21;18.95;;;4.50;;
42742;SDS011;28397;44.552;-0.848;2023-10-31T06:05:46;20.17;;;4.88;;
42742;SDS011;28397;44.552;-0.848;2023-10-31T06:08:12;22.40;;;5.68;;
42742;SDS011;28397;44.552;-0.848;2023-10-31T06:10:38;21.52;;;5.30;;
42742;SDS011;28397;44.552;-0.848;2023-10-31T06:13:04;22.50;;;5.90;;
42742;SDS011;28397;44.552;-0.848;2023-10-31T06:15:29;24.83;;;5.70;;
42742;SDS011;28397;44.552;-0.848;2023-10-31T06:17:55;25.80;;;6.22;;
42742;SDS011;28397;44.552;-0.848;2023-10-31T06:20:21;21.60;;;5.57;;
42742;SDS011;28397;44.552;-0.848;2023-10-31T06:22:47;23.15;;;5.72;;
42742;SDS011;28397;44.552;-0.848;2023-10-31T06:25:12;24.60;;;4.97;;
42742;SDS011;28397;44.552;-0.848;2023-10-31T06:27:38;18.25;;;4.72;;
42742;SDS011;28397;44.552;-0.848;2023-10-31T06:30:04;20.45;;;5.22;;
42742;SDS011;28397;44.552;-0.848;2023-10-31T06:32:30;23.35;;;5.65;;
42742;SDS011;28397;44.552;-0.848;2023-10-31T06:34:56;24.30;;;5.43;;
42742;SDS011;28397;44.552;-0.848;2023-10-31T06:37:21;21.48;;;4.72;;
42742;SDS011;28397;44.552;-0.848;2023-10-31T06:39:47;20.13;;;5.03;;
42742;SDS011;28397;44.552;-0.848;2023-10-31T06:42:12;16.15;;;4.03;;
42742;SDS011;28397;44.552;-0.848;2023-10-31T06:44:38;14.10;;;3.60;;
42742;SDS011;28397;44.552;-0.848;2023-10-31T06:47:04;10.20;;;2.67;;
42742;SDS011;28397;44.552;-0.848;2023-10-31T06:49:29;8.88;;;2.60;;
42742;SDS011;28397;44.552;-0.848;2023-10-31T06:51:55;8.15;;;2.40;;
42742;SDS011;28397;44.552;-0.848;2023-10-31T06:54:21;12.48;;;2.58;;
42742;SDS011;28397;44.552;-0.848;2023-10-31T06:56:47;12.85;;;2.83;;
42742;SDS011;28397;44.552;-0.848;2023-10-31T06:59:12;10.82;;;2.85;;
42742;SDS011;28397;44.552;-0.848;2023-10-31T07:01:38;8.57;;;2.50;;
42742;SDS011;28397;44.552;-0.848;2023-10-31T07:04:04;9.30;;;2.38;;
42742;SDS011;28397;44.552;-0.848;2023-10-31T07:06:30;12.90;;;2.90;;
42742;SDS011;28397;44.552;-0.848;2023-10-31T07:08:55;12.05;;;3.20;;
42742;SDS011;28397;44.552;-0.848;2023-10-31T07:11:22;11.32;;;3.05;;
42742;SDS011;28397;44.552;-0.848;2023-10-31T07:13:48;13.73;;;3.78;;
42742;SDS011;28397;44.552;-0.848;2023-10-31T07:16:13;13.63;;;4.43;;
42742;SDS011;28397;44.552;-0.848;2023-10-31T07:18:39;15.57;;;4.07;;
42742;SDS011;28397;44.552;-0.848;2023-10-31T07:21:05;13.32;;;3.80;;
42742;SDS011;28397;44.552;-0.848;2023-10-31T07:23:31;14.07;;;3.90;;
42742;SDS011;28397;44.552;-0.848;2023-10-31T07:25:56;17.17;;;4.03;;
42742;SDS011;28397;44.552;-0.848;2023-10-31T07:28:22;17.20;;;4.40;;
42742;SDS011;28397;44.552;-0.848;2023-10-31T07:30:48;17.73;;;4.40;;
42742;SDS011;28397;44.552;-0.848;2023-10-31T07:33:15;21.67;;;5.20;;
42742;SDS011;28397;44.552;-0.848;2023-10-31T07:35:41;17.42;;;4.70;;
42742;SDS011;28397;44.552;-0.848;2023-10-31T07:38:06;19.33;;;5.10;;
42742;SDS011;28397;44.552;-0.848;2023-10-31T07:40:32;19.95;;;5.03;;
42742;SDS011;28397;44.552;-0.848;2023-10-31T07:42:58;18.85;;;5.32;;
42742;SDS011;28397;44.552;-0.848;2023-10-31T07:45:24;21.10;;;4.88;;
42742;SDS011;28397;44.552;-0.848;2023-10-31T07:47:49;22.33;;;5.47;;
42742;SDS011;28397;44.552;-0.848;2023-10-31T07:50:15;21.83;;;5.30;;
42742;SDS011;28397;44.552;-0.848;2023-10-31T07:52:41;22.05;;;5.95;;
42742;SDS011;28397;44.552;-0.848;2023-10-31T07:55:08;19.83;;;5.20;;
42742;SDS011;28397;44.552;-0.848;2023-10-31T07:57:36;22.73;;;5.05;;
42742;SDS011;28397;44.552;-0.848;2023-10-31T08:00:02;17.88;;;4.97;;
42742;SDS011;28397;44.552;-0.848;2023-10-31T08:02:28;23.42;;;5.45;;
42742;SDS011;28397;44.552;-0.848;2023-10-31T08:04:53;20.33;;;4.90;;
42742;SDS011;28397;44.552;-0.848;2023-10-31T08:07:19;17.70;;;5.10;;
42742;SDS011;28397;44.552;-0.848;2023-10-31T08:09:44;23.98;;;5.93;;
42742;SDS011;28397;44.552;-0.848;2023-10-31T08:12:10;17.80;;;4.80;;
42742;SDS011;28397;44.552;-0.848;2023-10-31T08:14:36;19.75;;;5.38;;
42742;SDS011;28397;44.552;-0.848;2023-10-31T08:17:01;18.77;;;4.78;;
42742;SDS011;28397;44.552;-0.848;2023-10-31T08:19:27;16.17;;;4.63;;
42742;SDS011;28397;44.552;-0.848;2023-10-31T08:21:53;17.80;;;4.88;;
42742;SDS011;28397;44.552;-0.848;2023-10-31T08:24:18;14.45;;;4.20;;
42742;SDS011;28397;44.552;-0.848;2023-10-31T08:26:44;16.25;;;4.00;;
42742;SDS011;28397;44.552;-0.848;2023-10-31T08:29:10;16.85;;;4.35;;
42742;SDS011;28397;44.552;-0.848;2023-10-31T08:31:35;19.08;;;5.10;;
42742;SDS011;28397;44.552;-0.848;2023-10-31T08:34:01;19.35;;;5.10;;
42742;SDS011;28397;44.552;-0.848;2023-10-31T08:36:27;19.05;;;5.13;;
42742;SDS011;28397;44.552;-0.848;2023-10-31T08:38:54;17.38;;;4.20;;
42742;SDS011;28397;44.552;-0.848;2023-10-31T08:41:19;17.58;;;4.30;;
42742;SDS011;28397;44.552;-0.848;2023-10-31T08:43:46;17.17;;;4.57;;
42742;SDS011;28397;44.552;-0.848;2023-10-31T08:46:12;20.92;;;5.45;;
42742;SDS011;28397;44.552;-0.848;2023-10-31T08:48:38;23.23;;;4.88;;
42742;SDS011;28397;44.552;-0.848;2023-10-31T08:51:04;21.98;;;5.00;;
42742;SDS011;28397;44.552;-0.848;2023-10-31T08:53:29;22.20;;;5.15;;
42742;SDS011;28397;44.552;-0.848;2023-10-31T08:55:55;19.60;;;4.90;;
42742;SDS011;28397;44.552;-0.848;2023-10-31T08:58:21;18.45;;;5.28;;
42742;SDS011;28397;44.552;-0.848;2023-10-31T09:00:47;20.77;;;4.40;;
42742;SDS011;28397;44.552;-0.848;2023-10-31T09:03:13;24.20;;;5.03;;
42742;SDS011;28397;44.552;-0.848;2023-10-31T09:05:39;21.08;;;4.65;;
42742;SDS011;28397;44.552;-0.848;2023-10-31T09:08:05;18.85;;;4.65;;
42742;SDS011;28397;44.552;-0.848;2023-10-31T09:10:32;20.95;;;4.55;;
42742;SDS011;28397;44.552;-0.848;2023-10-31T09:12:58;17.67;;;4.85;;
42742;SDS011;28397;44.552;-0.848;2023-10-31T09:15:24;13.40;;;3.42;;
42742;SDS011;28397;44.552;-0.848;2023-10-31T09:17:50;14.68;;;3.97;;
42742;SDS011;28397;44.552;-0.848;2023-10-31T09:20:15;16.15;;;3.83;;
42742;SDS011;28397;44.552;-0.848;2023-10-31T09:22:41;15.38;;;3.35;;
42742;SDS011;28397;44.552;-0.848;2023-10-31T09:25:07;9.43;;;2.30;;
42742;SDS011;28397;44.552;-0.848;2023-10-31T09:27:32;9.77;;;2.70;;
42742;SDS011;28397;44.552;-0.848;2023-10-31T09:29:58;11.68;;;3.63;;
42742;SDS011;28397;44.552;-0.848;2023-10-31T09:32:24;11.43;;;3.00;;
42742;SDS011;28397;44.552;-0.848;2023-10-31T09:34:49;11.10;;;2.67;;
42742;SDS011;28397;44.552;-0.848;2023-10-31T09:37:15;11.10;;;3.28;;
42742;SDS011;28397;44.552;-0.848;2023-10-31T09:39:41;12.77;;;3.42;;
42742;SDS011;28397;44.552;-0.848;2023-10-31T09:42:06;14.82;;;3.80;;
42742;SDS011;28397;44.552;-0.848;2023-10-31T09:44:32;17.65;;;4.40;;
42742;SDS011;28397;44.552;-0.848;2023-10-31T09:46:58;17.10;;;3.85;;
42742;SDS011;28397;44.552;-0.848;2023-10-31T09:49:25;16.48;;;4.22;;
42742;SDS011;28397;44.552;-0.848;2023-10-31T09:51:53;21.75;;;4.80;;
42742;SDS011;28397;44.552;-0.848;2023-10-31T09:54:19;17.77;;;4.22;;
42742;SDS011;28397;44.552;-0.848;2023-10-31T09:56:46;22.88;;;4.63;;
42742;SDS011;28397;44.552;-0.848;2023-10-31T09:59:13;18.95;;;4.55;;
42742;SDS011;28397;44.552;-0.848;2023-10-31T10:01:39;17.25;;;4.68;;
42742;SDS011;28397;44.552;-0.848;2023-10-31T10:04:05;20.65;;;4.78;;
42742;SDS011;28397;44.552;-0.848;2023-10-31T10:06:31;20.77;;;4.60;;
42742;SDS011;28397;44.552;-0.848;2023-10-31T10:08:57;17.33;;;4.82;;
42742;SDS011;28397;44.552;-0.848;2023-10-31T10:11:23;19.25;;;4.38;;
42742;SDS011;28397;44.552;-0.848;2023-10-31T10:13:51;20.70;;;4.85;;
42742;SDS011;28397;44.552;-0.848;2023-10-31T10:16:30;15.95;;;3.95;;
42742;SDS011;28397;44.552;-0.848;2023-10-31T10:18:57;15.40;;;4.13;;
42742;SDS011;28397;44.552;-0.848;2023-10-31T10:24:18;17.35;;;3.80;;
42742;SDS011;28397;44.552;-0.848;2023-10-31T10:26:45;14.82;;;3.75;;
42742;SDS011;28397;44.552;-0.848;2023-10-31T10:29:11;14.13;;;3.60;;
42742;SDS011;28397;44.552;-0.848;2023-10-31T10:31:37;13.23;;;3.47;;
42742;SDS011;28397;44.552;-0.848;2023-10-31T10:34:02;12.30;;;3.22;;
42742;SDS011;28397;44.552;-0.848;2023-10-31T10:36:28;17.20;;;4.10;;
42742;SDS011;28397;44.552;-0.848;2023-10-31T10:38:57;17.27;;;4.45;;
42742;SDS011;28397;44.552;-0.848;2023-10-31T10:41:27;18.35;;;4.22;;
42742;SDS011;28397;44.552;-0.848;2023-10-31T10:43:57;16.60;;;4.55;;
42742;SDS011;28397;44.552;-0.848;2023-10-31T10:46:34;15.05;;;4.05;;
42742;SDS011;28397;44.552;-0.848;2023-10-31T10:49:04;16.08;;;4.13;;
42742;SDS011;28397;44.552;-0.848;2023-10-31T10:51:39;15.38;;;3.90;;
42742;SDS011;28397;44.552;-0.848;2023-10-31T10:54:32;19.40;;;4.38;;
42742;SDS011;28397;44.552;-0.848;2023-10-31T10:56:59;17.58;;;4.13;;
42742;SDS011;28397;44.552;-0.848;2023-10-31T10:59:45;15.85;;;3.63;;
42742;SDS011;28397;44.552;-0.848;2023-10-31T11:02:17;10.45;;;2.78;;
42742;SDS011;28397;44.552;-0.848;2023-10-31T11:04:43;10.50;;;2.20;;
42742;SDS011;28397;44.552;-0.848;2023-10-31T11:07:10;12.88;;;3.35;;
42742;SDS011;28397;44.552;-0.848;2023-10-31T11:09:35;9.73;;;2.65;;
42742;SDS011;28397;44.552;-0.848;2023-10-31T11:12:03;11.68;;;3.05;;
42742;SDS011;28397;44.552;-0.848;2023-10-31T11:14:30;11.98;;;3.00;;
42742;SDS011;28397;44.552;-0.848;2023-10-31T11:16:57;10.60;;;2.92;;
42742;SDS011;28397;44.552;-0.848;2023-10-31T11:19:29;13.57;;;3.13;;
42742;SDS011;28397;44.552;-0.848;2023-10-31T11:21:57;12.23;;;3.53;;
42742;SDS011;28397;44.552;-0.848;2023-10-31T11:24:28;17.83;;;4.15;;
42742;SDS011;28397;44.552;-0.848;2023-10-31T11:27:00;14.95;;;3.55;;
42742;SDS011;28397;44.552;-0.848;2023-10-31T11:29:27;15.60;;;3.63;;
42742;SDS011;28397;44.552;-0.848;2023-10-31T11:31:55;14.48;;;3.65;;
42742;SDS011;28397;44.552;-0.848;2023-10-31T11:34:21;13.90;;;3.63;;
42742;SDS011;28397;44.552;-0.848;2023-10-31T11:36:47;18.70;;;4.43;;
42742;SDS011;28397;44.552;-0.848;2023-10-31T11:39:15;15.27;;;4.03;;
42742;SDS011;28397;44.552;-0.848;2023-10-31T11:41:49;17.65;;;4.75;;
42742;SDS011;28397;44.552;-0.848;2023-10-31T11:44:16;17.90;;;4.40;;
42742;SDS011;28397;44.552;-0.848;2023-10-31T11:46:42;18.60;;;4.50;;
42742;SDS011;28397;44.552;-0.848;2023-10-31T11:49:12;17.45;;;4.15;;
42742;SDS011;28397;44.552;-0.848;2023-10-31T11:51:38;19.10;;;5.20;;
42742;SDS011;28397;44.552;-0.848;2023-10-31T11:54:04;23.02;;;5.00;;
42742;SDS011;28397;44.552;-0.848;2023-10-31T11:56:33;19.95;;;5.25;;
42742;SDS011;28397;44.552;-0.848;2023-10-31T11:59:00;23.88;;;5.38;;
42742;SDS011;28397;44.552;-0.848;2023-10-31T12:01:27;23.52;;;5.15;;
42742;SDS011;28397;44.552;-0.848;2023-10-31T12:03:53;23.83;;;5.60;;
42742;SDS011;28397;44.552;-0.848;2023-10-31T12:06:19;24.38;;;5.38;;
42742;SDS011;28397;44.552;-0.848;2023-10-31T12:08:46;19.98;;;5.47;;
42742;SDS011;28397;44.552;-0.848;2023-10-31T12:11:16;17.35;;;4.70;;
42742;SDS011;28397;44.552;-0.848;2023-10-31T12:13:54;16.13;;;4.28;;
42742;SDS011;28397;44.552;-0.848;2023-10-31T12:16:24;17.88;;;4.45;;
42742;SDS011;28397;44.552;-0.848;2023-10-31T12:18:58;15.93;;;3.83;;
42742;SDS011;28397;44.552;-0.848;2023-10-31T12:24:10;11.65;;;3.58;;
42742;SDS011;28397;44.552;-0.848;2023-10-31T12:26:37;13.20;;;3.72;;
42742;SDS011;28397;44.552;-0.848;2023-10-31T12:29:21;11.88;;;3.33;;
42742;SDS011;28397;44.552;-0.848;2023-10-31T12:31:48;11.73;;;3.13;;
42742;SDS011;28397;44.552;-0.848;2023-10-31T12:34:17;8.23;;;2.67;;
42742;SDS011;28397;44.552;-0.848;2023-10-31T12:36:45;12.23;;;3.10;;
42742;SDS011;28397;44.552;-0.848;2023-10-31T12:39:12;15.73;;;4.15;;
42742;SDS011;28397;44.552;-0.848;2023-10-31T12:41:39;12.50;;;3.30;;
42742;SDS011;28397;44.552;-0.848;2023-10-31T12:44:06;15.50;;;3.88;;
42742;SDS011;28397;44.552;-0.848;2023-10-31T12:46:38;16.70;;;4.18;;
42742;SDS011;28397;44.552;-0.848;2023-10-31T12:49:10;17.25;;;3.88;;
42742;SDS011;28397;44.552;-0.848;2023-10-31T12:51:38;16.48;;;3.63;;
42742;SDS011;28397;44.552;-0.848;2023-10-31T12:54:03;17.20;;;3.92;;
42742;SDS011;28397;44.552;-0.848;2023-10-31T12:56:38;16.10;;;4.18;;
42742;SDS011;28397;44.552;-0.848;2023-10-31T12:59:08;16.77;;;4.13;;
42742;SDS011;28397;44.552;-0.848;2023-10-31T13:01:35;21.00;;;4.63;;
42742;SDS011;28397;44.552;-0.848;2023-10-31T13:04:04;23.10;;;4.78;;
42742;SDS011;28397;44.552;-0.848;2023-10-31T13:06:30;15.85;;;3.78;;
42742;SDS011;28397;44.552;-0.848;2023-10-31T13:08:56;9.07;;;2.63;;
42742;SDS011;28397;44.552;-0.848;2023-10-31T13:11:22;11.27;;;2.60;;
42742;SDS011;28397;44.552;-0.848;2023-10-31T13:13:51;12.27;;;3.45;;
42742;SDS011;28397;44.552;-0.848;2023-10-31T13:16:18;16.63;;;3.33;;
42742;SDS011;28397;44.552;-0.848;2023-10-31T13:18:44;12.60;;;3.35;;
42742;SDS011;28397;44.552;-0.848;2023-10-31T13:21:09;11.50;;;3.00;;
42742;SDS011;28397;44.552;-0.848;2023-10-31T13:23:37;10.68;;;2.58;;
42742;SDS011;28397;44.552;-0.848;2023-10-31T13:26:03;9.50;;;3.10;;
42742;SDS011;28397;44.552;-0.848;2023-10-31T13:28:29;11.40;;;3.10;;
42742;SDS011;28397;44.552;-0.848;2023-10-31T13:30:57;12.07;;;2.90;;
42742;SDS011;28397;44.552;-0.848;2023-10-31T13:33:23;8.77;;;2.80;;
42742;SDS011;28397;44.552;-0.848;2023-10-31T13:35:48;9.63;;;2.58;;
42742;SDS011;28397;44.552;-0.848;2023-10-31T13:38:14;11.50;;;2.63;;
42742;SDS011;28397;44.552;-0.848;2023-10-31T13:40:40;15.02;;;3.30;;
42742;SDS011;28397;44.552;-0.848;2023-10-31T13:43:06;15.85;;;3.13;;
42742;SDS011;28397;44.552;-0.848;2023-10-31T13:45:33;12.25;;;2.80;;
42742;SDS011;28397;44.552;-0.848;2023-10-31T13:47:58;13.13;;;3.58;;
42742;SDS011;28397;44.552;-0.848;2023-10-31T13:50:24;12.00;;;3.17;;
42742;SDS011;28397;44.552;-0.848;2023-10-31T13:52:50;10.02;;;3.00;;
42742;SDS011;28397;44.552;-0.848;2023-10-31T13:55:17;10.88;;;2.47;;
42742;SDS011;28397;44.552;-0.848;2023-10-31T13:57:43;9.50;;;2.90;;
42742;SDS011;28397;44.552;-0.848;2023-10-31T14:00:09;10.35;;;2.75;;
42742;SDS011;28397;44.552;-0.848;2023-10-31T14:02:35;9.80;;;2.90;;
42742;SDS011;28397;44.552;-0.848;2023-10-31T14:05:01;11.20;;;3.25;;
42742;SDS011;28397;44.552;-0.848;2023-10-31T14:07:29;10.55;;;2.40;;
42742;SDS011;28397;44.552;-0.848;2023-10-31T14:09:55;14.00;;;3.15;;
42742;SDS011;28397;44.552;-0.848;2023-10-31T14:12:22;11.15;;;3.08;;
42742;SDS011;28397;44.552;-0.848;2023-10-31T14:14:48;12.38;;;2.80;;
42742;SDS011;28397;44.552;-0.848;2023-10-31T14:17:14;11.40;;;2.53;;
42742;SDS011;28397;44.552;-0.848;2023-10-31T14:19:41;13.00;;;2.90;;
42742;SDS011;28397;44.552;-0.848;2023-10-31T14:22:08;12.20;;;3.00;;
42742;SDS011;28397;44.552;-0.848;2023-10-31T14:24:33;11.88;;;3.08;;